Time;durP1;ratioP1;P1;durP2;ratioP2;P2;SDS_P1;SDS_P2;PMS_P1;PMS_P2;Temp;Humidity;BMP_temperature;BMP_pressure;BME280_temperature;BME280_humidity;BME280_pressure;Samples;Min_cycle;Max_cycle;Signal;HPM_P1;HPM_P2
2022/07/01 00:03:12;;;;;;;2.53;1.35;;;;;;;18.40;51.39;99821.91;10460768;28;20088;-64
2022/07/01 00:08:14;;;;;;;2.40;1.50;;;;;;;18.45;52.85;99809.06;10464283;28;20131;-65
2022/07/01 00:13:16;;;;;;;1.65;1.35;;;;;;;18.23;52.03;99817.34;10465233;28;20135;-65
2022/07/01 00:18:17;;;;;;;1.95;1.30;;;;;;;18.08;53.85;99827.50;10465254;28;20174;-65
2022/07/01 00:23:19;;;;;;;2.20;1.33;;;;;;;17.95;53.07;99834.91;10467067;28;20090;-65
2022/07/01 00:28:21;;;;;;;1.48;1.27;;;;;;;17.90;54.97;99841.56;10462776;28;20044;-65
2022/07/01 00:33:23;;;;;;;1.38;1.15;;;;;;;17.83;54.80;99860.66;10465821;28;20174;-65
2022/07/01 00:38:25;;;;;;;1.85;1.10;;;;;;;17.78;54.67;99857.63;10461358;28;20128;-64
2022/07/01 00:43:27;;;;;;;1.40;1.10;;;;;;;17.78;54.60;99854.13;10461379;28;20156;-64
2022/07/01 00:48:49;;;;;;;3.38;1.20;;;;;;;17.74;54.70;99864.16;10462753;28;20055;-65
2022/07/01 00:53:51;;;;;;;1.38;1.17;;;;;;;17.69;55.14;99858.44;10464580;28;20493;-64
2022/07/01 00:58:52;;;;;;;1.73;1.20;;;;;;;17.81;55.26;99854.69;10463828;28;20399;-65
2022/07/01 01:03:55;;;;;;;2.03;1.20;;;;;;;17.68;54.90;99856.78;10462973;28;20335;-65
2022/07/01 01:08:57;;;;;;;3.72;1.35;;;;;;;17.64;55.46;99865.97;10466021;28;20055;-64
2022/07/01 01:13:59;;;;;;;1.30;1.17;;;;;;;17.65;55.91;99878.19;10464378;28;20048;-65
2022/07/01 01:19:04;;;;;;;3.90;1.30;;;;;;;17.64;56.23;99878.34;10464074;28;20102;-65
2022/07/01 01:24:07;;;;;;;4.78;1.50;;;;;;;17.58;56.26;99879.72;10464162;28;20560;-66
2022/07/01 01:29:09;;;;;;;3.85;1.50;;;;;;;17.50;56.33;99887.53;10459809;28;20048;-65
2022/07/01 01:34:11;;;;;;;6.75;1.35;;;;;;;17.42;56.40;99907.66;10462720;28;20098;-65
2022/07/01 01:39:15;;;;;;;3.58;1.13;;;;;;;17.34;56.62;99918.09;10463374;28;20052;-66
2022/07/01 01:44:17;;;;;;;3.67;1.27;;;;;;;17.22;56.82;99927.06;10468448;28;20076;-65
2022/07/01 01:49:20;;;;;;;2.50;1.17;;;;;;;17.11;56.99;99927.97;10470302;28;20131;-65
2022/07/01 01:54:21;;;;;;;2.78;1.40;;;;;;;17.16;56.54;99943.44;10470149;28;20151;-65
2022/07/01 01:59:23;;;;;;;1.95;1.20;;;;;;;17.04;56.62;99932.13;10461725;28;20174;-65
2022/07/01 02:04:25;;;;;;;2.65;1.20;;;;;;;17.12;56.30;99934.94;10461624;28;20058;-65
2022/07/01 02:09:28;;;;;;;1.55;1.00;;;;;;;17.15;56.48;99918.81;10474210;28;20056;-65
2022/07/01 02:14:30;;;;;;;3.60;1.10;;;;;;;17.14;56.57;99934.81;10459872;28;20114;-65
2022/07/01 02:19:32;;;;;;;1.88;1.00;;;;;;;17.17;57.37;99937.19;10475053;28;20225;-65
2022/07/01 02:24:33;;;;;;;2.75;1.15;;;;;;;17.19;57.19;99944.00;10475664;28;20147;-65
2022/07/01 02:29:35;;;;;;;1.98;1.10;;;;;;;17.26;56.67;99960.19;10476001;28;20435;-64
2022/07/01 02:34:37;;;;;;;1.58;1.05;;;;;;;17.15;57.22;99965.53;10459235;28;20080;-64
2022/07/01 02:39:40;;;;;;;2.35;1.10;;;;;;;17.14;57.09;99963.88;10475956;28;20055;-64
2022/07/01 02:44:42;;;;;;;3.20;1.10;;;;;;;17.22;56.79;99961.41;10475282;28;20878;-65
2022/07/01 02:49:45;;;;;;;1.38;1.13;;;;;;;17.20;56.60;99961.53;10477139;28;20048;-64
2022/07/01 02:54:46;;;;;;;1.88;1.10;;;;;;;17.13;57.27;99947.19;10474984;28;20053;-65
2022/07/01 02:59:50;;;;;;;3.08;1.20;;;;;;;17.14;56.77;99950.66;10475504;28;20401;-64
2022/07/01 03:04:53;;;;;;;7.32;1.40;;;;;;;17.10;56.93;99957.19;10471151;28;20052;-65
2022/07/01 03:09:55;;;;;;;2.58;1.17;;;;;;;16.97;57.41;99942.41;10469252;28;20048;-64
2022/07/01 03:15:05;;;;;;;2.50;1.27;;;;;;;17.06;57.48;99929.38;10469528;28;20145;-64
2022/07/01 03:20:10;;;;;;;4.43;1.40;;;;;;;17.15;57.32;99912.69;10469342;28;20147;-65
2022/07/01 03:25:12;;;;;;;3.67;1.27;;;;;;;17.07;57.31;99909.88;10467975;28;20163;-64
2022/07/01 03:30:15;;;;;;;4.07;1.20;;;;;;;17.05;57.35;99899.44;10466020;28;20127;-65
2022/07/01 03:40:37;;;;;;;3.50;1.30;;;;;;;17.02;57.78;99912.91;10467506;28;20098;-65
2022/07/01 03:45:39;;;;;;;2.40;1.20;;;;;;;16.94;57.69;99915.38;10467112;28;20110;-64
2022/07/01 03:50:41;;;;;;;3.55;1.50;;;;;;;16.90;58.01;99898.97;10467727;28;20442;-64
2022/07/01 03:55:43;;;;;;;2.53;1.25;;;;;;;16.89;57.71;99918.44;10466096;28;20109;-64
2022/07/01 04:00:44;;;;;;;1.95;1.20;;;;;;;16.86;57.83;99920.50;10468180;28;20720;-64
2022/07/01 04:05:47;;;;;;;2.42;1.25;;;;;;;16.83;58.00;99939.25;10466168;28;20110;-65
2022/07/01 04:10:50;;;;;;;1.52;1.20;;;;;;;16.91;57.21;99932.34;10468206;28;20461;-65
2022/07/01 04:15:51;;;;;;;2.65;1.30;;;;;;;16.93;56.67;99934.84;10467284;28;20127;-65
2022/07/01 04:26:14;;;;;;;;;;;;;;;16.50;55.80;99920.97;10467746;28;20128;-64
2022/07/01 04:31:36;;;;;;;;;;;;;;;16.52;55.95;99919.06;10467315;28;20584;-64
2022/07/01 04:36:38;;;;;;;1.58;1.10;;;;;;;16.90;54.55;99904.25;10444307;28;20023;-65
2022/07/01 04:47:01;;;;;;;;;;;;;;;16.47;55.23;99922.06;10445814;28;20470;-65
2022/07/01 04:52:03;;;;;;;4.43;1.13;;;;;;;16.74;54.25;99937.38;10459096;28;19923;-65
2022/07/01 04:57:05;;;;;;;3.33;1.00;;;;;;;16.70;54.36;99952.66;10461821;28;20151;-65
2022/07/01 05:02:07;;;;;;;2.50;0.93;;;;;;;16.80;54.69;99972.03;10459820;28;20143;-65
2022/07/01 05:07:28;;;;;;;1.70;1.00;;;;;;;16.74;54.68;99974.34;10461191;28;20130;-65
2022/07/01 05:12:30;;;;;;;1.33;0.80;;;;;;;16.86;54.23;99979.44;10462375;28;20053;-64
2022/07/01 05:22:54;;;;;;;1.90;1.00;;;;;;;16.64;54.89;99997.22;10463389;28;20052;-65
2022/07/01 05:27:56;;;;;;;1.67;1.00;;;;;;;16.77;54.67;99998.69;10468614;28;20131;-64
2022/07/01 05:32:57;;;;;;;5.90;1.20;;;;;;;17.03;53.73;100013.22;10447530;28;20452;-65
2022/07/01 05:37:59;;;;;;;1.52;1.10;;;;;;;17.00;53.16;100015.25;10455368;28;20502;-65
2022/07/01 05:43:01;;;;;;;2.00;1.08;;;;;;;16.93;53.59;100024.69;10451551;28;20245;-65
2022/07/01 05:48:03;;;;;;;2.00;1.00;;;;;;;17.25;53.26;100025.41;10441168;28;20419;-65
2022/07/01 05:53:05;;;;;;;2.00;0.90;;;;;;;17.62;52.53;100026.59;10449907;28;20127;-65
2022/07/01 05:58:08;;;;;;;2.67;1.10;;;;;;;17.60;52.38;100025.88;10454294;28;20487;-66
2022/07/01 06:03:11;;;;;;;5.55;1.10;;;;;;;17.77;51.13;100016.47;10466025;28;20618;-66
2022/07/01 06:08:13;;;;;;;4.43;1.30;;;;;;;17.98;51.40;100037.53;10469029;28;20066;-65
2022/07/01 06:13:14;;;;;;;2.75;1.10;;;;;;;18.23;50.61;100029.13;10471301;28;20127;-64
2022/07/01 06:18:16;;;;;;;3.20;1.13;;;;;;;18.46;50.03;100041.13;10469278;28;20498;-67
2022/07/01 06:23:18;;;;;;;3.63;1.10;;;;;;;19.14;48.37;100025.03;10470949;28;20064;-64
2022/07/01 06:28:20;;;;;;;4.25;1.05;;;;;;;19.43;47.21;100041.69;10470421;28;20137;-64
2022/07/01 06:33:21;;;;;;;3.03;1.30;;;;;;;19.68;46.84;100037.56;10470348;28;20131;-64
2022/07/01 06:38:24;;;;;;;5.65;1.35;;;;;;;19.97;45.88;100032.13;10469586;28;20114;-63
2022/07/01 06:43:25;;;;;;;3.10;1.20;;;;;;;19.92;45.18;100035.22;10471212;28;20122;-64
2022/07/01 06:48:28;;;;;;;3.45;1.40;;;;;;;19.82;45.12;100046.88;10469757;28;20060;-64
2022/07/01 06:53:30;;;;;;;5.38;1.20;;;;;;;19.54;45.70;100045.16;10470809;28;20131;-64
2022/07/01 06:58:32;;;;;;;2.38;1.08;;;;;;;19.44;45.42;100027.44;10470773;28;20132;-64
2022/07/01 07:03:34;;;;;;;6.25;1.30;;;;;;;19.37;45.73;100028.19;10470144;28;20507;-64
2022/07/01 07:08:35;;;;;;;3.20;1.25;;;;;;;19.41;45.54;100034.88;10469472;28;20812;-64
2022/07/01 07:13:37;;;;;;;4.82;1.40;;;;;;;19.48;45.35;100051.88;10469441;28;20113;-64
2022/07/01 07:18:39;;;;;;;2.08;1.10;;;;;;;19.18;45.54;100066.19;10468047;28;20549;-64
2022/07/01 07:23:42;;;;;;;6.35;1.40;;;;;;;18.89;45.98;100113.06;10440239;28;20128;-64
2022/07/01 07:28:44;;;;;;;6.10;1.40;;;;;;;18.60;46.49;100115.72;10467633;28;20147;-64
2022/07/01 07:33:45;;;;;;;4.53;1.23;;;;;;;18.63;46.64;100119.91;10467660;28;20048;-63
2022/07/01 07:38:47;;;;;;;4.82;1.30;;;;;;;18.74;46.96;100109.19;10449472;28;20103;-64
2022/07/01 07:43:49;;;;;;;2.58;1.20;;;;;;;18.59;47.32;100110.53;10468434;28;20055;-64
2022/07/01 07:48:50;;;;;;;2.35;1.20;;;;;;;18.52;47.46;100127.97;10466208;28;20372;-64
2022/07/01 07:53:52;;;;;;;6.80;1.70;;;;;;;18.53;47.29;100134.94;10465092;28;20131;-65
2022/07/01 07:58:54;;;;;;;5.93;1.83;;;;;;;18.51;47.18;100134.25;10436312;28;20087;-65
2022/07/01 08:03:56;;;;;;;4.13;1.20;;;;;;;18.67;46.94;100140.69;10463940;28;20147;-65
2022/07/01 08:08:58;;;;;;;2.53;1.30;;;;;;;18.67;47.25;100146.97;10462171;28;21441;-65
2022/07/01 08:14:00;;;;;;;3.90;1.48;;;;;;;18.79;46.87;100144.03;10463374;28;20130;-65
2022/07/01 08:19:02;;;;;;;3.53;1.38;;;;;;;18.97;47.00;100137.06;10461896;28;20105;-65
2022/07/01 08:24:04;;;;;;;2.13;1.33;;;;;;;19.01;46.17;100124.38;10461913;28;20088;-73
2022/07/01 08:29:06;;;;;;;3.22;1.60;;;;;;;18.90;46.59;100100.66;10459402;28;20143;-73
2022/07/01 08:34:09;;;;;;;3.65;1.40;;;;;;;18.81;46.98;100104.16;10460076;28;20463;-73
2022/07/01 08:39:11;;;;;;;3.25;1.40;;;;;;;19.06;46.85;100090.34;10459862;28;20451;-73
2022/07/01 08:44:13;;;;;;;5.93;1.40;;;;;;;19.47;46.04;100121.81;10461861;28;20056;-73
2022/07/01 08:49:17;;;;;;;2.30;1.33;;;;;;;19.94;44.84;100127.97;10459774;28;20167;-73
2022/07/01 08:54:18;;;;;;;5.18;1.48;;;;;;;19.99;43.90;100096.53;10451862;28;20130;-73
2022/07/01 08:59:25;;;;;;;5.63;1.45;;;;;;;20.09;43.85;100095.47;10468439;28;20488;-71
2022/07/01 09:04:28;;;;;;;4.15;1.52;;;;;;;20.22;43.64;100085.34;10463170;28;20497;-73
2022/07/01 09:09:35;;;;;;;7.57;1.65;;;;;;;19.56;44.32;100112.16;10464130;28;20056;-73
2022/07/01 09:14:39;;;;;;;5.63;1.70;;;;;;;19.75;44.19;100133.31;10440775;28;20055;-73
2022/07/01 09:19:50;;;;;;;6.05;1.50;;;;;;;20.28;43.74;100142.34;10462752;28;20143;-73
2022/07/01 09:24:52;;;;;;;6.90;1.50;;;;;;;21.44;41.81;100148.47;10450227;28;20162;-74
2022/07/01 09:29:53;;;;;;;4.70;1.52;;;;;;;22.11;40.06;100147.75;10453974;28;20052;-74
2022/07/01 09:34:55;;;;;;;4.82;1.63;;;;;;;22.03;40.14;100148.53;10435550;28;20052;-73
2022/07/01 09:39:59;;;;;;;3.95;1.20;;;;;;;21.81;39.25;100155.22;10440950;28;20052;-73
2022/07/01 09:45:10;;;;;;;4.30;1.40;;;;;;;21.24;40.71;100152.28;10451809;28;20541;-71
2022/07/01 09:50:12;;;;;;;6.18;1.30;;;;;;;20.65;42.19;100129.84;10460635;28;20048;-71
2022/07/01 09:55:14;;;;;;;4.90;1.33;;;;;;;20.74;41.46;100136.06;10467361;28;20064;-71
2022/07/01 10:00:16;;;;;;;5.60;1.60;;;;;;;20.43;42.49;100130.22;10467566;28;20547;-72
2022/07/01 10:05:23;;;;;;;4.55;1.40;;;;;;;21.11;41.04;100118.09;10462008;28;20455;-73
2022/07/01 10:10:48;;;;;;;3.78;1.58;;;;;;;22.77;37.98;100113.13;10448158;28;20123;-72
2022/07/01 10:15:51;;;;;;;2.53;1.40;;;;;;;23.37;37.02;100115.28;10451009;28;20106;-73
2022/07/01 10:20:55;;;;;;;4.43;1.20;;;;;;;22.86;37.38;100128.16;10445657;28;20508;-73
2022/07/01 10:26:04;;;;;;;3.47;1.35;;;;;;;22.99;37.10;100133.81;10466769;28;20075;-73
2022/07/01 10:31:13;;;;;;;4.22;1.30;;;;;;;23.33;36.66;100127.31;10463248;28;20450;-73
2022/07/01 10:36:27;;;;;;;3.88;1.40;;;;;;;24.20;35.57;100116.63;10468700;28;20477;-73
2022/07/01 10:41:32;;;;;;;3.70;1.30;;;;;;;24.81;34.57;100115.78;10461715;28;20137;-73
2022/07/01 10:46:40;;;;;;;7.47;2.15;;;;;;;24.50;35.00;100116.78;10452392;28;20084;-71
2022/07/01 10:51:53;;;;;;;4.07;1.45;;;;;;;24.19;35.25;100122.97;10451115;28;20186;-73
2022/07/01 10:56:55;;;;;;;3.70;1.20;;;;;;;23.38;36.12;100132.16;10434629;28;20159;-71
2022/07/01 11:01:57;;;;;;;5.13;1.30;;;;;;;24.00;36.00;100119.84;10469879;28;20492;-71
2022/07/01 11:06:58;;;;;;;3.88;1.30;;;;;;;24.19;35.35;100117.63;10469435;28;20060;-72
2022/07/01 11:12:01;;;;;;;3.42;1.50;;;;;;;23.59;36.35;100121.81;10467008;28;20102;-73
2022/07/01 11:17:04;;;;;;;4.68;1.30;;;;;;;22.87;36.26;100129.81;10465908;28;20040;-73
2022/07/01 11:22:06;;;;;;;4.13;1.45;;;;;;;22.89;37.18;100128.66;10466468;28;20136;-73
2022/07/01 11:27:08;;;;;;;3.53;1.40;;;;;;;23.32;36.32;100124.81;10467273;28;20133;-73
2022/07/01 11:32:10;;;;;;;3.65;1.38;;;;;;;23.24;36.82;100120.31;10465283;28;20088;-73
2022/07/01 11:42:32;;;;;;;2.30;1.23;;;;;;;21.94;37.66;100127.31;10459672;28;20178;-73
2022/07/01 11:47:34;;;;;;;3.55;1.30;;;;;;;21.50;38.31;100122.09;10458391;28;20146;-73
2022/07/01 11:52:36;;;;;;;6.70;1.40;;;;;;;21.48;39.18;100123.22;10463860;28;20044;-73
2022/07/01 11:57:38;;;;;;;4.65;1.13;;;;;;;22.16;38.03;100116.97;10461179;28;20447;-73
2022/07/01 12:02:40;;;;;;;4.22;1.10;;;;;;;22.61;36.84;100114.75;10459690;28;20142;-73
2022/07/01 12:07:47;;;;;;;2.15;1.10;;;;;;;23.04;35.23;100108.34;10463066;28;20591;-72
2022/07/01 12:12:48;;;;;;;2.38;1.05;;;;;;;23.41;35.17;100102.50;10444283;28;20348;-73
2022/07/01 12:18:04;;;;;;;2.42;1.20;;;;;;;23.25;34.75;100102.44;10460819;28;20048;-73
2022/07/01 12:23:15;;;;;;;3.65;1.30;;;;;;;23.13;34.39;100101.13;10461324;28;20087;-73
2022/07/01 12:28:27;;;;;;;3.95;1.20;;;;;;;23.13;34.30;100111.81;10441442;28;20044;-72
2022/07/01 12:33:29;;;;;;;2.80;1.23;;;;;;;22.58;34.57;100120.41;10443466;28;20049;-73
2022/07/01 12:38:32;;;;;;;3.30;1.10;;;;;;;22.08;36.00;100121.41;10444165;28;20082;-72
2022/07/01 12:43:37;;;;;;;4.18;0.98;;;;;;;21.81;36.73;100114.44;10458534;28;20232;-72
2022/07/01 12:48:48;;;;;;;2.30;1.10;;;;;;;21.74;36.94;100114.22;10457286;28;20080;-72
2022/07/01 12:53:50;;;;;;;4.40;1.00;;;;;;;21.96;36.90;100112.03;10459539;28;20163;-72
2022/07/01 12:58:52;;;;;;;3.70;1.10;;;;;;;22.54;35.59;100116.41;10460844;28;20654;-72
2022/07/01 13:03:54;;;;;;;1.80;0.90;;;;;;;22.62;35.42;100108.41;10459080;28;20048;-70
2022/07/01 13:08:56;;;;;;;2.95;1.10;;;;;;;22.93;34.57;100113.97;10460039;28;20127;-72
2022/07/01 13:13:58;;;;;;;2.78;1.00;;;;;;;23.22;33.01;100118.81;10442557;28;20049;-73
2022/07/01 13:19:00;;;;;;;2.50;1.00;;;;;;;23.76;32.14;100118.06;10460591;28;20143;-73
2022/07/01 13:24:02;;;;;;;1.75;0.80;;;;;;;24.06;30.63;100106.59;10460723;28;20132;-71
2022/07/01 13:29:24;;;;;;;1.63;0.90;;;;;;;23.71;31.68;100120.44;10443716;28;20492;-73
2022/07/01 13:34:29;;;;;;;2.90;1.02;;;;;;;23.81;31.63;100121.06;10439535;28;20048;-72
2022/07/01 13:39:30;;;;;;;5.93;1.10;;;;;;;23.87;31.78;100128.41;10464952;28;20044;-71
2022/07/01 13:44:32;;;;;;;3.03;0.95;;;;;;;23.73;31.98;100133.63;10468258;28;20045;-73
2022/07/01 13:49:35;;;;;;;2.70;1.00;;;;;;;23.72;31.74;100132.78;10467393;28;20563;-72
2022/07/01 13:54:38;;;;;;;4.63;1.10;;;;;;;23.65;32.54;100142.50;10467236;28;20048;-68
2022/07/01 13:59:40;;;;;;;2.90;1.10;;;;;;;23.79;32.29;100146.28;10468793;28;20113;-70
2022/07/01 14:04:42;;;;;;;2.45;1.00;;;;;;;23.98;31.90;100140.56;10465251;28;20629;-70
2022/07/01 14:09:46;;;;;;;2.05;0.90;;;;;;;24.05;31.69;100145.03;10464076;28;20143;-71
2022/07/01 14:14:49;;;;;;;2.20;1.00;;;;;;;24.16;31.05;100152.69;10465581;28;20056;-71
2022/07/01 14:19:52;;;;;;;2.25;1.08;;;;;;;24.55;30.04;100141.16;10461328;28;20136;-67
2022/07/01 14:24:56;;;;;;;3.45;0.82;;;;;;;23.99;30.42;100136.88;10449375;28;20052;-71
2022/07/01 14:29:58;;;;;;;4.57;1.10;;;;;;;24.09;30.36;100138.38;10465615;28;20217;-69
2022/07/01 14:35:01;;;;;;;2.13;0.93;;;;;;;24.35;30.72;100151.44;10449125;28;20568;-69
2022/07/01 14:40:03;;;;;;;3.08;0.98;;;;;;;24.20;30.14;100151.38;10464841;28;20048;-70
2022/07/01 14:45:07;;;;;;;1.95;0.80;;;;;;;24.08;30.83;100147.38;10470074;28;20139;-68
2022/07/01 14:50:09;;;;;;;3.88;1.00;;;;;;;24.00;30.79;100154.59;10453215;28;20149;-69
2022/07/01 14:55:11;;;;;;;2.15;0.90;;;;;;;23.94;30.52;100157.94;10469762;28;20198;-69
2022/07/01 15:00:13;;;;;;;1.35;0.82;;;;;;;24.43;30.17;100148.72;10468521;28;20131;-68
2022/07/01 15:05:15;;;;;;;3.58;1.00;;;;;;;24.15;30.48;100150.19;10468932;28;20157;-68
2022/07/01 15:10:17;;;;;;;4.35;1.33;;;;;;;24.26;30.45;100153.34;10469752;28;20135;-68
2022/07/01 15:15:19;;;;;;;1.10;0.85;;;;;;;24.09;30.76;100146.38;10468353;28;20126;-70
2022/07/01 15:20:21;;;;;;;3.20;0.93;;;;;;;24.41;30.45;100139.25;10465254;28;20144;-71
2022/07/01 15:25:26;;;;;;;1.60;0.93;;;;;;;24.51;29.88;100134.50;10467852;28;20484;-72
2022/07/01 15:30:27;;;;;;;1.98;1.00;;;;;;;24.52;29.78;100128.97;10468681;28;20149;-70
2022/07/01 15:35:29;;;;;;;2.55;1.17;;;;;;;24.45;29.73;100140.56;10464616;28;20163;-71
2022/07/01 15:40:31;;;;;;;2.53;0.80;;;;;;;24.08;30.44;100143.91;10469467;28;20160;-70
2022/07/01 15:45:33;;;;;;;2.83;0.90;;;;;;;23.72;30.56;100151.47;10461302;28;20096;-72
2022/07/01 15:50:40;;;;;;;1.65;0.90;;;;;;;23.51;31.76;100151.19;10465813;28;20664;-70
2022/07/01 15:55:43;;;;;;;3.22;1.00;;;;;;;23.59;30.58;100159.19;10433039;28;20143;-70
2022/07/01 16:00:47;;;;;;;1.73;0.90;;;;;;;23.48;31.32;100160.38;10464023;28;20044;-70
2022/07/01 16:05:51;;;;;;;2.67;1.00;;;;;;;23.52;30.81;100165.34;10465025;28;20500;-72
2022/07/01 16:11:02;;;;;;;1.80;1.00;;;;;;;23.57;31.49;100173.69;10466515;28;20155;-71
2022/07/01 16:16:06;;;;;;;3.25;0.90;;;;;;;23.68;31.30;100174.19;10464863;28;20131;-70
2022/07/01 16:21:10;;;;;;;1.92;0.82;;;;;;;23.58;31.53;100176.19;10453261;28;20063;-71
2022/07/01 16:26:13;;;;;;;6.63;1.30;;;;;;;23.39;32.15;100184.53;10462272;28;20587;-72
2022/07/01 16:31:19;;;;;;;4.78;1.15;;;;;;;23.34;32.83;100179.69;10461771;28;20072;-72
2022/07/01 16:36:25;;;;;;;3.10;1.00;;;;;;;23.75;32.22;100179.69;10462204;28;20088;-72
2022/07/01 16:42:00;;;;;;;3.97;0.93;;;;;;;23.66;31.44;100175.34;10463012;28;20139;-72
2022/07/01 16:47:04;;;;;;;2.95;1.00;;;;;;;23.87;31.65;100178.31;10452182;28;20055;-72
2022/07/01 16:52:11;;;;;;;1.83;1.00;;;;;;;23.92;32.41;100181.31;10456792;28;20139;-72
2022/07/01 16:57:18;;;;;;;1.67;1.05;;;;;;;23.72;32.19;100175.50;10435726;28;20044;-72
2022/07/01 17:02:20;;;;;;;1.48;1.00;;;;;;;22.96;33.08;100191.03;10464054;28;20143;-72
2022/07/01 17:07:22;;;;;;;2.47;1.00;;;;;;;22.70;33.59;100193.75;10444929;28;20235;-72
2022/07/01 17:12:24;;;;;;;7.28;1.10;;;;;;;22.54;33.88;100198.19;10464490;28;20040;-72
2022/07/01 17:17:28;;;;;;;2.30;1.02;;;;;;;22.72;34.63;100204.25;10445115;28;20135;-72
2022/07/01 17:22:42;;;;;;;4.07;1.10;;;;;;;22.71;34.61;100210.59;10466789;28;20153;-72
2022/07/01 17:28:03;;;;;;;2.70;1.05;;;;;;;22.85;34.48;100219.81;10470757;28;20496;-72
2022/07/01 17:33:06;;;;;;;4.35;1.30;;;;;;;23.21;33.72;100227.38;10471732;28;20052;-72
2022/07/01 17:38:13;;;;;;;2.50;1.10;;;;;;;23.28;33.31;100232.91;10471632;28;20048;-72
2022/07/01 17:43:20;;;;;;;2.60;1.02;;;;;;;22.91;34.35;100228.00;10470984;28;20170;-72
2022/07/01 17:48:23;;;;;;;2.80;1.02;;;;;;;22.48;34.73;100228.16;10470666;28;20155;-72
2022/07/01 17:53:26;;;;;;;2.17;0.90;;;;;;;21.95;35.69;100236.34;10470539;28;20045;-71
2022/07/01 17:58:29;;;;;;;3.17;1.10;;;;;;;21.51;36.63;100234.69;10468732;28;20899;-72
2022/07/01 18:03:32;;;;;;;2.83;1.10;;;;;;;21.47;36.33;100231.53;10463756;28;20141;-71
2022/07/01 18:08:34;;;;;;;3.22;1.00;;;;;;;21.47;37.18;100238.66;10462688;28;20379;-72
2022/07/01 18:14:07;;;;;;;4.82;1.20;;;;;;;21.32;38.09;100241.03;10459384;28;20139;-72
2022/07/01 18:19:31;;;;;;;2.58;1.00;;;;;;;21.13;38.59;100249.09;10468057;28;20139;-72
2022/07/01 18:24:41;;;;;;;3.22;1.23;;;;;;;20.92;38.57;100260.06;10467400;28;20060;-70
2022/07/01 18:29:47;;;;;;;7.45;1.20;;;;;;;20.60;39.95;100267.63;10452504;28;20048;-70
2022/07/01 18:35:12;;;;;;;4.15;1.38;;;;;;;20.23;41.23;100266.78;10452136;28;20408;-71
2022/07/01 18:40:16;;;;;;;3.95;1.38;;;;;;;20.15;42.23;100279.94;10469907;28;20049;-72
2022/07/01 18:45:18;;;;;;;3.38;1.30;;;;;;;20.17;42.28;100275.34;10470965;28;20140;-72
2022/07/01 18:50:21;;;;;;;1.92;1.15;;;;;;;20.12;43.02;100289.03;10469497;28;20095;-72
2022/07/01 18:55:24;;;;;;;2.13;1.10;;;;;;;20.00;42.86;100292.00;10469413;28;20084;-72
2022/07/01 19:00:31;;;;;;;3.50;1.00;;;;;;;19.55;43.51;100288.22;10468697;28;20056;-72
2022/07/01 19:05:34;;;;;;;3.25;1.30;;;;;;;19.57;44.06;100307.50;10469851;28;20056;-73
2022/07/01 19:10:36;;;;;;;2.92;1.30;;;;;;;19.65;44.30;100304.97;10470462;28;20412;-71
2022/07/01 19:15:38;;;;;;;5.03;1.50;;;;;;;19.64;45.09;100313.94;10469707;28;20044;-71
2022/07/01 19:20:40;;;;;;;4.80;1.30;;;;;;;19.58;45.79;100307.38;10467493;28;20056;-63
2022/07/01 19:25:41;;;;;;;3.35;1.10;;;;;;;19.59;45.69;100313.50;10468890;28;20139;-63
2022/07/01 19:30:43;;;;;;;5.32;1.30;;;;;;;19.53;46.21;100322.03;10468862;28;20140;-63
2022/07/01 19:35:48;;;;;;;3.17;1.35;;;;;;;19.32;46.88;100327.44;10467872;28;20103;-63
2022/07/01 19:40:49;;;;;;;4.60;1.60;;;;;;;19.20;47.05;100334.69;10451696;28;20097;-63
2022/07/01 19:45:51;;;;;;;4.22;1.45;;;;;;;19.04;47.33;100347.63;10469584;28;20547;-63
2022/07/01 19:50:53;;;;;;;4.70;2.00;;;;;;;18.74;48.26;100352.09;10468499;28;20052;-64
2022/07/01 19:55:55;;;;;;;3.35;1.63;;;;;;;18.55;48.39;100366.94;10467938;28;20045;-63
2022/07/01 20:00:57;;;;;;;3.28;1.48;;;;;;;18.38;48.95;100372.81;10467420;28;20133;-64
2022/07/01 20:05:59;;;;;;;5.15;1.98;;;;;;;18.24;49.17;100373.16;10450125;28;20102;-63
2022/07/01 20:11:02;;;;;;;4.82;1.85;;;;;;;17.99;50.26;100380.63;10458383;28;20147;-63
2022/07/01 20:16:04;;;;;;;2.20;1.30;;;;;;;17.85;50.30;100395.00;10461148;28;20056;-63
2022/07/01 20:21:06;;;;;;;3.22;1.55;;;;;;;17.73;50.55;100410.06;10462298;28;20048;-63
2022/07/01 20:26:08;;;;;;;6.05;1.40;;;;;;;17.60;50.71;100417.31;10465059;28;20063;-63
2022/07/01 20:31:10;;;;;;;2.88;1.30;;;;;;;17.42;51.55;100416.16;10465947;28;20101;-63
2022/07/01 20:36:12;;;;;;;2.45;1.20;;;;;;;17.28;51.59;100418.19;10463336;28;20135;-63
2022/07/01 20:41:13;;;;;;;2.80;1.45;;;;;;;17.12;51.75;100421.19;10461565;28;20543;-62
2022/07/01 20:46:15;;;;;;;3.25;1.45;;;;;;;16.97;52.32;100422.44;10462514;28;20209;-63
2022/07/01 20:51:17;;;;;;;4.68;1.60;;;;;;;16.87;52.17;100432.84;10465379;28;20063;-64
2022/07/01 20:56:19;;;;;;;4.38;1.50;;;;;;;16.78;52.48;100438.00;10462534;28;20048;-63
2022/07/01 21:01:23;;;;;;;4.20;2.00;;;;;;;16.75;52.31;100448.84;10461136;28;20424;-63
2022/07/01 21:06:26;;;;;;;4.93;1.30;;;;;;;16.57;52.98;100451.06;10463036;28;20057;-63
2022/07/01 21:11:28;;;;;;;3.05;1.40;;;;;;;16.57;53.13;100455.53;10465679;28;20084;-64
2022/07/01 21:16:30;;;;;;;2.38;1.30;;;;;;;16.48;53.17;100461.50;10447944;28;20072;-62
2022/07/01 21:21:32;;;;;;;4.97;1.58;;;;;;;16.41;53.45;100462.88;10463009;28;20048;-64
2022/07/01 21:26:33;;;;;;;4.15;1.40;;;;;;;16.33;53.73;100478.44;10462074;28;20136;-65
2022/07/01 21:31:35;;;;;;;4.90;1.40;;;;;;;16.26;53.51;100478.09;10447748;28;20471;-64
2022/07/01 21:36:41;;;;;;;3.92;1.52;;;;;;;16.17;53.99;100489.31;10463878;28;20220;-65
2022/07/01 21:41:45;;;;;;;4.53;1.30;;;;;;;16.19;54.19;100487.41;10464651;28;20191;-64
2022/07/01 21:46:48;;;;;;;4.70;1.50;;;;;;;16.08;54.30;100496.09;10465256;28;20104;-64
2022/07/01 21:51:50;;;;;;;2.55;1.38;;;;;;;15.91;54.61;100496.50;10463840;28;20044;-65
2022/07/01 21:56:54;;;;;;;3.30;1.45;;;;;;;15.81;54.83;100498.13;10465150;28;20060;-64
2022/07/01 22:01:57;;;;;;;2.35;1.35;;;;;;;15.83;54.98;100496.22;10472512;28;20064;-64
2022/07/01 22:07:00;;;;;;;3.13;1.42;;;;;;;15.81;54.91;100503.41;10469988;28;20106;-65
2022/07/01 22:12:04;;;;;;;3.75;1.50;;;;;;;15.76;55.03;100502.88;10470746;28;20048;-64
2022/07/01 22:17:07;;;;;;;3.63;1.42;;;;;;;15.64;54.87;100501.13;10471290;28;20044;-63
2022/07/01 22:22:09;;;;;;;3.22;1.63;;;;;;;15.33;55.63;100509.47;10470752;28;20220;-64
2022/07/01 22:27:11;;;;;;;6.63;1.98;;;;;;;15.22;55.89;100517.31;10471642;28;20135;-63
2022/07/01 22:32:13;;;;;;;6.40;2.10;;;;;;;15.17;55.96;100517.63;10470843;28;20053;-63
2022/07/01 22:37:15;;;;;;;4.00;1.67;;;;;;;15.09;56.11;100525.22;10471072;28;20133;-63
2022/07/01 22:42:19;;;;;;;6.45;1.65;;;;;;;15.02;56.21;100529.19;10471342;28;20111;-63
2022/07/01 22:47:21;;;;;;;3.30;1.48;;;;;;;14.95;56.67;100522.69;10470651;28;20464;-64
2022/07/01 22:52:44;;;;;;;3.92;1.50;;;;;;;14.85;56.91;100516.38;10468612;28;20492;-63
2022/07/01 22:58:04;;;;;;;3.47;1.40;;;;;;;14.39;58.19;100517.75;10469763;28;20136;-63
2022/07/01 23:03:15;;;;;;;3.73;1.53;;;;;;;14.34;57.96;100520.66;10469050;28;20059;-63
2022/07/01 23:08:27;;;;;;;3.92;1.55;;;;;;;14.41;58.18;100532.47;10470036;28;20071;-63
2022/07/01 23:13:35;;;;;;;3.88;1.67;;;;;;;14.43;57.89;100535.84;10468387;28;20464;-63
2022/07/01 23:18:38;;;;;;;4.75;1.50;;;;;;;14.27;57.83;100550.94;10469254;28;20048;-64
2022/07/01 23:23:43;;;;;;;3.78;1.55;;;;;;;14.33;57.85;100550.53;10467328;28;20048;-65
2022/07/01 23:28:47;;;;;;;3.90;1.40;;;;;;;14.20;58.33;100547.03;10467016;28;20168;-64
2022/07/01 23:33:49;;;;;;;4.60;1.60;;;;;;;14.19;57.88;100549.75;10468911;28;20552;-63
2022/07/01 23:38:52;;;;;;;3.58;1.60;;;;;;;14.09;58.24;100546.88;10449962;28;20147;-64
2022/07/01 23:43:54;;;;;;;3.65;1.60;;;;;;;14.05;58.48;100560.31;10468002;28;20115;-63
2022/07/01 23:48:55;;;;;;;4.45;1.52;;;;;;;14.06;58.25;100560.25;10468321;28;20125;-64